createdAt,value
2022-10-04T00:00:11.523Z,7.68
2022-10-04T00:05:18.956Z,8.95
2022-10-04T00:10:26.730Z,7.20
2022-10-04T00:15:33.863Z,7.03
2022-10-04T00:20:57.932Z,7.87
2022-10-04T00:26:05.403Z,7.05
2022-10-04T00:31:13.347Z,8.07
2022-10-04T00:36:53.988Z,8.57
2022-10-04T00:42:09.996Z,7.53
2022-10-04T00:47:22.635Z,7.47
2022-10-04T00:52:28.604Z,7.62
2022-10-04T00:57:39.994Z,9.48
2022-10-04T01:02:53.551Z,9.70
2022-10-04T01:08:04.760Z,7.72
2022-10-04T01:13:15.173Z,8.10
2022-10-04T01:18:30.679Z,8.32
2022-10-04T01:23:38.170Z,8.40
2022-10-04T01:28:41.980Z,8.90
2022-10-04T01:33:46.534Z,7.78
2022-10-04T01:38:52.591Z,8.73
2022-10-04T01:44:01.310Z,8.45
2022-10-04T01:49:08.723Z,8.63
2022-10-04T01:54:18.384Z,9.93
2022-10-04T01:59:28.226Z,10.02
2022-10-04T02:04:35.265Z,8.98
2022-10-04T02:09:43.705Z,8.90
2022-10-04T02:19:58.721Z,9.07
2022-10-04T02:25:04.280Z,10.02
2022-10-04T02:30:10.852Z,9.48
2022-10-04T02:35:15.841Z,9.90
2022-10-04T02:40:26.239Z,9.60
2022-10-04T02:45:39.419Z,9.30
2022-10-04T02:50:49.508Z,9.63
2022-10-04T02:55:56.948Z,10.18
2022-10-04T03:01:01.883Z,9.67
2022-10-04T03:06:09.039Z,8.80
2022-10-04T03:11:15.952Z,8.90
2022-10-04T03:16:20.952Z,10.15
2022-10-04T03:21:26.421Z,9.60
2022-10-04T03:26:38.245Z,10.13
2022-10-04T03:31:45.731Z,11.80
2022-10-04T03:36:51.501Z,10.73
2022-10-04T03:41:58.573Z,11.65
2022-10-04T03:47:02.788Z,11.70
2022-10-04T03:52:08.532Z,12.25
2022-10-04T03:57:14.136Z,12.02
2022-10-04T04:02:30.956Z,11.77
2022-10-04T04:07:40.279Z,12.15
2022-10-04T04:12:48.465Z,11.77
2022-10-04T04:17:55.221Z,12.40
2022-10-04T04:23:04.753Z,12.37
2022-10-04T04:28:25.561Z,12.30
2022-10-04T04:33:32.484Z,11.95
2022-10-04T04:38:56.437Z,11.85
2022-10-04T04:44:01.922Z,13.30
2022-10-04T04:49:06.397Z,12.40
2022-10-04T04:54:10.204Z,13.82
2022-10-04T04:59:16.575Z,13.93
2022-10-04T05:04:23.051Z,13.18
2022-10-04T05:09:30.381Z,12.43
2022-10-04T05:14:36.250Z,13.70
2022-10-04T05:19:41.363Z,13.52
2022-10-04T05:24:47.623Z,15.23
2022-10-04T05:30:03.698Z,13.90
2022-10-04T05:35:17.715Z,13.55
2022-10-04T05:40:42.447Z,14.52
2022-10-04T05:45:47.871Z,13.43
2022-10-04T05:50:51.714Z,13.25
2022-10-04T05:56:07.675Z,15.05
2022-10-04T06:01:29.083Z,12.88
2022-10-04T06:06:41.584Z,12.73
2022-10-04T06:11:55.763Z,14.35
2022-10-04T06:17:21.366Z,12.18
2022-10-04T06:22:26.824Z,11.02
2022-10-04T06:27:37.080Z,11.35
2022-10-04T06:32:59.185Z,12.35
2022-10-04T06:38:26.072Z,11.35
2022-10-04T06:43:43.239Z,10.80
2022-10-04T06:49:32.949Z,10.32
2022-10-04T06:54:52.901Z,10.40
2022-10-04T07:00:23.108Z,10.13
2022-10-04T07:05:35.027Z,10.05
2022-10-04T07:10:47.520Z,10.50
2022-10-04T07:15:56.849Z,11.27
2022-10-04T07:21:06.886Z,10.55
2022-10-04T07:26:22.277Z,9.35
2022-10-04T07:31:29.589Z,10.40
2022-10-04T07:36:46.866Z,9.15
2022-10-04T07:41:53.819Z,9.13
2022-10-04T07:47:02.143Z,9.75
2022-10-04T07:57:38.087Z,8.52
2022-10-04T08:02:56.665Z,7.20
2022-10-04T08:08:25.515Z,7.85
2022-10-04T08:13:41.981Z,7.50
2022-10-04T08:19:00.039Z,7.12
2022-10-04T08:24:21.610Z,7.20
2022-10-04T08:29:49.363Z,7.28
2022-10-04T08:35:05.236Z,6.82
2022-10-04T08:40:36.317Z,7.50
2022-10-04T08:46:05.863Z,8.07
2022-10-04T08:51:41.645Z,7.97
2022-10-04T08:56:59.390Z,7.97
2022-10-04T09:02:24.206Z,8.07
2022-10-04T09:07:53.713Z,8.15
2022-10-04T09:13:34.098Z,8.55
2022-10-04T09:19:19.642Z,8.10
2022-10-04T09:24:54.164Z,7.90
2022-10-04T09:30:12.109Z,7.53
2022-10-04T09:35:39.019Z,7.70
2022-10-04T09:41:06.574Z,7.87
2022-10-04T09:46:33.076Z,7.40
2022-10-04T09:51:55.754Z,7.28
2022-10-04T09:57:14.060Z,6.93
2022-10-04T10:02:57.341Z,5.82
2022-10-04T10:08:14.215Z,5.32
2022-10-04T10:13:43.078Z,5.82
2022-10-04T10:19:00.174Z,5.93
2022-10-04T10:24:30.169Z,5.57
2022-10-04T10:29:51.943Z,5.90
2022-10-04T10:35:35.417Z,5.40
2022-10-04T10:40:59.948Z,4.47
2022-10-04T10:46:28.480Z,4.90
2022-10-04T10:51:50.255Z,4.93
2022-10-04T10:57:06.357Z,4.78
2022-10-04T11:02:49.763Z,4.97
2022-10-04T11:07:56.438Z,4.70
2022-10-04T11:13:26.943Z,3.92
2022-10-04T11:18:57.405Z,3.70
2022-10-04T11:24:35.519Z,4.32
2022-10-04T11:29:55.822Z,5.72
2022-10-04T11:35:37.160Z,4.60
2022-10-04T11:40:54.604Z,4.20
2022-10-04T11:46:17.893Z,4.90
2022-10-04T11:52:02.075Z,4.22
2022-10-04T11:57:15.917Z,4.00
2022-10-04T12:02:56.855Z,3.97
2022-10-04T12:08:17.345Z,3.80
2022-10-04T12:13:37.920Z,3.85
2022-10-04T12:19:13.487Z,3.80
2022-10-04T12:24:38.397Z,3.78
2022-10-04T12:30:15.706Z,3.70
2022-10-04T12:40:38.110Z,3.70
2022-10-04T12:45:52.938Z,3.08
2022-10-04T12:51:16.147Z,3.20
2022-10-04T12:56:37.267Z,2.80
2022-10-04T13:01:52.556Z,3.50
2022-10-04T13:07:14.650Z,3.45
2022-10-04T13:12:31.483Z,2.90
2022-10-04T13:17:47.065Z,2.90
2022-10-04T13:23:00.700Z,3.35
2022-10-04T13:28:13.118Z,2.83
2022-10-04T13:33:26.921Z,3.12
2022-10-04T13:38:53.577Z,3.22
2022-10-04T13:44:30.121Z,3.53
2022-10-04T13:49:48.464Z,2.40
2022-10-04T13:55:31.021Z,2.40
2022-10-04T14:00:48.030Z,2.40
2022-10-04T14:11:44.769Z,3.28
2022-10-04T14:17:14.360Z,2.92
2022-10-04T14:22:54.381Z,2.53
2022-10-04T14:28:35.724Z,2.70
2022-10-04T14:34:16.543Z,2.30
2022-10-04T14:39:39.529Z,2.50
2022-10-04T14:45:04.339Z,3.05
2022-10-04T14:50:24.887Z,2.50
2022-10-04T14:56:06.773Z,2.00
2022-10-04T15:01:21.034Z,2.47
2022-10-04T15:06:36.158Z,2.55
2022-10-04T15:11:57.507Z,2.10
2022-10-04T15:17:25.339Z,2.60
2022-10-04T15:22:37.608Z,2.47
2022-10-04T15:27:56.582Z,2.78
2022-10-04T15:33:34.012Z,1.85
2022-10-04T15:38:48.540Z,2.20
2022-10-04T15:44:29.744Z,2.65
2022-10-04T15:49:52.618Z,2.80
2022-10-04T15:55:27.069Z,3.50
2022-10-04T16:00:47.986Z,2.70
2022-10-04T16:06:03.422Z,3.20
2022-10-04T16:11:31.986Z,3.03
2022-10-04T16:17:12.107Z,3.05
2022-10-04T16:22:19.267Z,2.30
2022-10-04T16:27:57.205Z,3.00
2022-10-04T16:33:07.288Z,3.30
2022-10-04T16:38:25.299Z,3.10
2022-10-04T16:48:40.272Z,3.37
2022-10-04T16:53:52.484Z,4.05
2022-10-04T16:59:00.337Z,3.60
2022-10-04T17:04:21.356Z,7.68
2022-10-04T17:09:30.853Z,4.35
2022-10-04T17:14:57.748Z,3.42
2022-10-04T17:20:08.247Z,7.00
2022-10-04T17:25:28.667Z,4.50
2022-10-04T17:30:46.093Z,3.92
2022-10-04T17:36:01.468Z,5.05
2022-10-04T17:41:17.840Z,3.97
2022-10-04T17:46:30.458Z,4.10
2022-10-04T17:51:58.313Z,4.70
2022-10-04T17:57:23.011Z,5.00
2022-10-04T18:02:39.448Z,4.57
2022-10-04T18:07:48.933Z,4.70
2022-10-04T18:12:59.644Z,4.40
2022-10-04T18:18:16.091Z,5.80
2022-10-04T18:23:27.316Z,4.93
2022-10-04T18:28:34.759Z,4.40
2022-10-04T18:33:50.122Z,4.77
2022-10-04T18:39:05.501Z,4.40
2022-10-04T18:44:15.734Z,3.78
2022-10-04T18:49:24.765Z,4.50
2022-10-04T18:54:36.547Z,4.57
2022-10-04T19:00:09.236Z,4.03
2022-10-04T19:05:19.535Z,4.57
2022-10-04T19:10:28.971Z,4.47
2022-10-04T19:15:44.265Z,4.35
2022-10-04T19:20:52.817Z,4.68
2022-10-04T19:26:30.562Z,4.65
2022-10-04T19:31:35.147Z,4.43
2022-10-04T19:36:49.027Z,4.53
2022-10-04T19:41:59.368Z,4.75
2022-10-04T19:47:13.289Z,5.15
2022-10-04T19:52:23.331Z,5.97
2022-10-04T19:57:39.564Z,5.65
2022-10-04T20:02:48.704Z,6.18
2022-10-04T20:07:57.095Z,5.85
2022-10-04T20:13:24.140Z,5.43
2022-10-04T20:18:59.601Z,5.72
2022-10-04T20:24:03.671Z,5.03
2022-10-04T20:29:08.497Z,5.57
2022-10-04T20:34:34.208Z,5.37
2022-10-04T20:40:02.160Z,5.70
2022-10-04T20:45:27.925Z,5.65
2022-10-04T20:50:42.277Z,6.72
2022-10-04T20:55:46.804Z,6.28
2022-10-04T21:00:54.733Z,6.00
2022-10-04T21:06:06.059Z,6.30
2022-10-04T21:11:20.536Z,6.32
2022-10-04T21:16:38.142Z,6.03
2022-10-04T21:22:01.657Z,5.70
2022-10-04T21:27:07.004Z,6.25
2022-10-04T21:32:10.807Z,6.57
2022-10-04T21:37:16.082Z,6.70
2022-10-04T21:42:19.832Z,6.10
2022-10-04T21:47:23.693Z,6.53
2022-10-04T21:52:28.810Z,6.28
2022-10-04T21:57:35.678Z,6.57
2022-10-04T22:02:39.582Z,6.32
2022-10-04T22:07:44.722Z,5.78
2022-10-04T22:12:48.445Z,6.72
2022-10-04T22:17:52.230Z,5.97
2022-10-04T22:22:57.635Z,5.80
2022-10-04T22:28:01.466Z,6.47
2022-10-04T22:33:28.582Z,5.87
2022-10-04T22:38:33.642Z,6.20
2022-10-04T22:43:37.479Z,6.22
2022-10-04T22:48:41.266Z,5.95
2022-10-04T22:53:47.693Z,6.07
2022-10-04T22:58:51.422Z,6.10
2022-10-04T23:03:58.841Z,6.40
2022-10-04T23:09:03.967Z,5.50
2022-10-04T23:14:07.759Z,6.35
2022-10-04T23:19:14.722Z,6.10
2022-10-04T23:24:21.976Z,6.37
2022-10-04T23:29:28.818Z,6.53
2022-10-04T23:34:36.479Z,6.40
2022-10-04T23:39:41.899Z,6.90
2022-10-04T23:44:47.907Z,6.72
2022-10-04T23:49:54.463Z,7.72
2022-10-04T23:54:59.589Z,6.85
